sensor_id;sensor_type;location;lat;lon;timestamp;temperature;humidity
21563;DHT22;10942;47.894;11.424;2023-11-18T00:01:20;3.90;99.90
21563;DHT22;10942;47.894;11.424;2023-11-18T00:03:46;3.90;99.90
21563;DHT22;10942;47.894;11.424;2023-11-18T00:06:12;3.80;99.90
21563;DHT22;10942;47.894;11.424;2023-11-18T00:08:38;3.90;99.90
21563;DHT22;10942;47.894;11.424;2023-11-18T00:11:04;3.90;99.90
21563;DHT22;10942;47.894;11.424;2023-11-18T00:13:30;3.90;99.90
21563;DHT22;10942;47.894;11.424;2023-11-18T00:15:55;3.90;99.90
21563;DHT22;10942;47.894;11.424;2023-11-18T00:18:22;3.90;99.90
21563;DHT22;10942;47.894;11.424;2023-11-18T00:20:47;3.90;99.90
21563;DHT22;10942;47.894;11.424;2023-11-18T00:23:17;3.90;99.90
21563;DHT22;10942;47.894;11.424;2023-11-18T00:25:43;3.90;99.90
21563;DHT22;10942;47.894;11.424;2023-11-18T00:28:10;3.90;99.90
21563;DHT22;10942;47.894;11.424;2023-11-18T00:30:38;3.90;99.90
21563;DHT22;10942;47.894;11.424;2023-11-18T00:33:03;4.00;99.90
21563;DHT22;10942;47.894;11.424;2023-11-18T00:35:29;3.90;99.90
21563;DHT22;10942;47.894;11.424;2023-11-18T00:38:00;3.90;99.90
21563;DHT22;10942;47.894;11.424;2023-11-18T00:40:26;3.90;99.90
21563;DHT22;10942;47.894;11.424;2023-11-18T00:42:55;3.90;99.90
21563;DHT22;10942;47.894;11.424;2023-11-18T00:45:21;4.00;99.90
21563;DHT22;10942;47.894;11.424;2023-11-18T00:47:47;4.00;99.90
21563;DHT22;10942;47.894;11.424;2023-11-18T00:50:14;4.00;99.90
21563;DHT22;10942;47.894;11.424;2023-11-18T00:52:39;4.00;99.90
21563;DHT22;10942;47.894;11.424;2023-11-18T00:55:10;4.00;99.90
21563;DHT22;10942;47.894;11.424;2023-11-18T00:57:38;4.00;99.90
21563;DHT22;10942;47.894;11.424;2023-11-18T01:00:11;4.00;99.90
21563;DHT22;10942;47.894;11.424;2023-11-18T01:02:40;4.10;99.90
21563;DHT22;10942;47.894;11.424;2023-11-18T01:05:06;4.10;99.90
21563;DHT22;10942;47.894;11.424;2023-11-18T01:07:33;4.10;99.90
21563;DHT22;10942;47.894;11.424;2023-11-18T01:09:58;4.20;99.90
21563;DHT22;10942;47.894;11.424;2023-11-18T01:12:26;4.20;99.90
21563;DHT22;10942;47.894;11.424;2023-11-18T01:14:51;4.20;99.90
21563;DHT22;10942;47.894;11.424;2023-11-18T01:17:17;4.20;99.90
21563;DHT22;10942;47.894;11.424;2023-11-18T01:19:43;4.20;99.90
21563;DHT22;10942;47.894;11.424;2023-11-18T01:22:09;4.20;99.90
21563;DHT22;10942;47.894;11.424;2023-11-18T01:24:37;4.20;99.90
21563;DHT22;10942;47.894;11.424;2023-11-18T01:27:03;4.20;99.90
21563;DHT22;10942;47.894;11.424;2023-11-18T01:29:29;4.10;99.90
21563;DHT22;10942;47.894;11.424;2023-11-18T01:31:55;4.20;99.90
21563;DHT22;10942;47.894;11.424;2023-11-18T01:34:21;4.20;99.90
21563;DHT22;10942;47.894;11.424;2023-11-18T01:36:48;4.10;99.90
21563;DHT22;10942;47.894;11.424;2023-11-18T01:39:17;4.10;99.90
21563;DHT22;10942;47.894;11.424;2023-11-18T01:41:44;4.10;99.90
21563;DHT22;10942;47.894;11.424;2023-11-18T01:44:10;4.20;99.90
21563;DHT22;10942;47.894;11.424;2023-11-18T01:46:36;4.20;99.90
21563;DHT22;10942;47.894;11.424;2023-11-18T01:49:03;4.20;99.90
21563;DHT22;10942;47.894;11.424;2023-11-18T01:51:30;4.20;99.90
21563;DHT22;10942;47.894;11.424;2023-11-18T01:53:57;4.20;99.90
21563;DHT22;10942;47.894;11.424;2023-11-18T01:56:26;4.20;99.90
21563;DHT22;10942;47.894;11.424;2023-11-18T01:58:52;4.20;99.90
21563;DHT22;10942;47.894;11.424;2023-11-18T02:01:19;4.20;99.90
21563;DHT22;10942;47.894;11.424;2023-11-18T02:03:44;4.20;99.90
21563;DHT22;10942;47.894;11.424;2023-11-18T02:06:10;4.30;99.90
21563;DHT22;10942;47.894;11.424;2023-11-18T02:08:38;4.30;99.90
21563;DHT22;10942;47.894;11.424;2023-11-18T02:11:26;4.30;99.90
21563;DHT22;10942;47.894;11.424;2023-11-18T02:13:54;4.30;99.90
21563;DHT22;10942;47.894;11.424;2023-11-18T02:16:21;4.30;99.90
21563;DHT22;10942;47.894;11.424;2023-11-18T02:18:49;4.30;99.90
21563;DHT22;10942;47.894;11.424;2023-11-18T02:21:15;4.20;99.90
21563;DHT22;10942;47.894;11.424;2023-11-18T02:23:41;4.30;99.90
21563;DHT22;10942;47.894;11.424;2023-11-18T02:26:09;4.30;99.90
21563;DHT22;10942;47.894;11.424;2023-11-18T02:28:35;4.20;99.90
21563;DHT22;10942;47.894;11.424;2023-11-18T02:31:09;4.20;99.90
21563;DHT22;10942;47.894;11.424;2023-11-18T02:33:48;4.20;99.90
21563;DHT22;10942;47.894;11.424;2023-11-18T02:36:26;4.30;99.90
21563;DHT22;10942;47.894;11.424;2023-11-18T02:39:03;4.20;99.90
21563;DHT22;10942;47.894;11.424;2023-11-18T02:41:37;4.30;99.90
21563;DHT22;10942;47.894;11.424;2023-11-18T02:44:04;4.30;99.90
21563;DHT22;10942;47.894;11.424;2023-11-18T02:46:36;4.20;99.90
21563;DHT22;10942;47.894;11.424;2023-11-18T02:49:03;4.20;99.90
21563;DHT22;10942;47.894;11.424;2023-11-18T02:51:29;4.30;99.90
21563;DHT22;10942;47.894;11.424;2023-11-18T02:53:57;4.30;99.90
21563;DHT22;10942;47.894;11.424;2023-11-18T02:56:23;4.30;99.90
21563;DHT22;10942;47.894;11.424;2023-11-18T02:58:48;4.30;99.90
21563;DHT22;10942;47.894;11.424;2023-11-18T03:01:14;4.30;99.90
21563;DHT22;10942;47.894;11.424;2023-11-18T03:03:40;4.30;99.90
21563;DHT22;10942;47.894;11.424;2023-11-18T03:06:08;4.20;99.90
21563;DHT22;10942;47.894;11.424;2023-11-18T03:08:34;4.30;99.90
21563;DHT22;10942;47.894;11.424;2023-11-18T03:11:00;4.30;99.90
21563;DHT22;10942;47.894;11.424;2023-11-18T03:13:26;4.30;99.90
21563;DHT22;10942;47.894;11.424;2023-11-18T03:15:51;4.20;99.90
21563;DHT22;10942;47.894;11.424;2023-11-18T03:18:17;4.20;99.90
21563;DHT22;10942;47.894;11.424;2023-11-18T03:20:43;4.30;99.90
21563;DHT22;10942;47.894;11.424;2023-11-18T03:23:09;4.30;99.90
21563;DHT22;10942;47.894;11.424;2023-11-18T03:25:35;4.30;99.90
21563;DHT22;10942;47.894;11.424;2023-11-18T03:28:01;4.30;99.90
21563;DHT22;10942;47.894;11.424;2023-11-18T03:30:27;4.30;99.90
21563;DHT22;10942;47.894;11.424;2023-11-18T03:32:54;4.30;99.90
21563;DHT22;10942;47.894;11.424;2023-11-18T03:35:20;4.30;99.90
21563;DHT22;10942;47.894;11.424;2023-11-18T03:37:46;4.30;99.90
21563;DHT22;10942;47.894;11.424;2023-11-18T03:40:13;4.30;99.90
21563;DHT22;10942;47.894;11.424;2023-11-18T03:42:43;4.30;99.90
21563;DHT22;10942;47.894;11.424;2023-11-18T03:45:12;4.30;99.90
21563;DHT22;10942;47.894;11.424;2023-11-18T03:47:39;4.30;99.90
21563;DHT22;10942;47.894;11.424;2023-11-18T03:50:05;4.30;99.90
21563;DHT22;10942;47.894;11.424;2023-11-18T03:52:33;4.30;99.90
21563;DHT22;10942;47.894;11.424;2023-11-18T03:55:00;4.30;99.90
21563;DHT22;10942;47.894;11.424;2023-11-18T03:57:25;4.30;99.90
21563;DHT22;10942;47.894;11.424;2023-11-18T03:59:51;4.30;99.90
21563;DHT22;10942;47.894;11.424;2023-11-18T04:02:17;4.30;99.90
21563;DHT22;10942;47.894;11.424;2023-11-18T04:04:43;4.30;99.90
21563;DHT22;10942;47.894;11.424;2023-11-18T04:07:08;4.30;99.90
21563;DHT22;10942;47.894;11.424;2023-11-18T04:09:34;4.30;99.90
21563;DHT22;10942;47.894;11.424;2023-11-18T04:12:00;4.30;99.90
21563;DHT22;10942;47.894;11.424;2023-11-18T04:14:26;4.20;99.90
21563;DHT22;10942;47.894;11.424;2023-11-18T04:16:52;4.20;99.90
21563;DHT22;10942;47.894;11.424;2023-11-18T04:19:18;4.20;99.90
21563;DHT22;10942;47.894;11.424;2023-11-18T04:21:44;4.30;99.90
21563;DHT22;10942;47.894;11.424;2023-11-18T04:24:14;4.30;99.90
21563;DHT22;10942;47.894;11.424;2023-11-18T04:26:40;4.20;99.90
21563;DHT22;10942;47.894;11.424;2023-11-18T04:29:06;4.30;99.90
21563;DHT22;10942;47.894;11.424;2023-11-18T04:31:32;4.20;99.90
21563;DHT22;10942;47.894;11.424;2023-11-18T04:33:59;4.20;99.90
21563;DHT22;10942;47.894;11.424;2023-11-18T04:36:25;4.20;99.90
21563;DHT22;10942;47.894;11.424;2023-11-18T04:38:52;4.20;99.90
21563;DHT22;10942;47.894;11.424;2023-11-18T04:41:18;4.20;99.90
21563;DHT22;10942;47.894;11.424;2023-11-18T04:43:43;4.20;99.90
21563;DHT22;10942;47.894;11.424;2023-11-18T04:46:09;4.20;99.90
21563;DHT22;10942;47.894;11.424;2023-11-18T04:48:36;4.20;99.90
21563;DHT22;10942;47.894;11.424;2023-11-18T04:51:02;4.20;99.90
21563;DHT22;10942;47.894;11.424;2023-11-18T04:53:28;4.20;99.90
21563;DHT22;10942;47.894;11.424;2023-11-18T04:55:53;4.20;99.90
21563;DHT22;10942;47.894;11.424;2023-11-18T04:58:20;4.20;99.90
21563;DHT22;10942;47.894;11.424;2023-11-18T05:00:46;4.20;99.90
21563;DHT22;10942;47.894;11.424;2023-11-18T05:03:13;4.20;99.90
21563;DHT22;10942;47.894;11.424;2023-11-18T05:05:39;4.20;99.90
21563;DHT22;10942;47.894;11.424;2023-11-18T05:08:06;4.20;99.90
21563;DHT22;10942;47.894;11.424;2023-11-18T05:10:33;4.30;99.90
21563;DHT22;10942;47.894;11.424;2023-11-18T05:12:59;4.30;99.90
21563;DHT22;10942;47.894;11.424;2023-11-18T05:15:25;4.20;99.90
21563;DHT22;10942;47.894;11.424;2023-11-18T05:17:52;4.20;99.90
21563;DHT22;10942;47.894;11.424;2023-11-18T05:20:18;4.20;99.90
21563;DHT22;10942;47.894;11.424;2023-11-18T05:22:43;4.30;99.90
21563;DHT22;10942;47.894;11.424;2023-11-18T05:25:09;4.20;99.90
21563;DHT22;10942;47.894;11.424;2023-11-18T05:27:35;4.20;99.90
21563;DHT22;10942;47.894;11.424;2023-11-18T05:30:01;4.30;99.90
21563;DHT22;10942;47.894;11.424;2023-11-18T05:32:28;4.30;99.90
21563;DHT22;10942;47.894;11.424;2023-11-18T05:34:54;4.30;99.90
21563;DHT22;10942;47.894;11.424;2023-11-18T05:37:21;4.30;99.90
21563;DHT22;10942;47.894;11.424;2023-11-18T05:39:48;4.30;99.90
21563;DHT22;10942;47.894;11.424;2023-11-18T05:42:19;4.30;99.90
21563;DHT22;10942;47.894;11.424;2023-11-18T05:44:44;4.30;99.90
21563;DHT22;10942;47.894;11.424;2023-11-18T05:47:10;4.30;99.90
21563;DHT22;10942;47.894;11.424;2023-11-18T05:49:39;4.30;99.90
21563;DHT22;10942;47.894;11.424;2023-11-18T05:52:05;4.30;99.90
21563;DHT22;10942;47.894;11.424;2023-11-18T05:54:32;4.30;99.90
21563;DHT22;10942;47.894;11.424;2023-11-18T05:56:58;4.30;99.90
21563;DHT22;10942;47.894;11.424;2023-11-18T05:59:25;4.30;99.90
21563;DHT22;10942;47.894;11.424;2023-11-18T06:01:52;4.30;99.90
21563;DHT22;10942;47.894;11.424;2023-11-18T06:04:18;4.30;99.90
21563;DHT22;10942;47.894;11.424;2023-11-18T06:06:44;4.30;99.90
21563;DHT22;10942;47.894;11.424;2023-11-18T06:09:09;4.40;99.90
21563;DHT22;10942;47.894;11.424;2023-11-18T06:11:43;4.30;99.90
21563;DHT22;10942;47.894;11.424;2023-11-18T06:14:10;4.30;99.90
21563;DHT22;10942;47.894;11.424;2023-11-18T06:16:37;4.40;99.90
21563;DHT22;10942;47.894;11.424;2023-11-18T06:19:05;4.40;99.90
21563;DHT22;10942;47.894;11.424;2023-11-18T06:21:31;4.30;99.90
21563;DHT22;10942;47.894;11.424;2023-11-18T06:23:58;4.40;99.90
21563;DHT22;10942;47.894;11.424;2023-11-18T06:26:24;4.30;99.90
21563;DHT22;10942;47.894;11.424;2023-11-18T06:28:53;4.40;99.90
21563;DHT22;10942;47.894;11.424;2023-11-18T06:31:19;4.40;99.90
21563;DHT22;10942;47.894;11.424;2023-11-18T06:33:47;4.40;99.90
21563;DHT22;10942;47.894;11.424;2023-11-18T06:38:48;4.40;99.90
21563;DHT22;10942;47.894;11.424;2023-11-18T06:41:22;4.40;99.90
21563;DHT22;10942;47.894;11.424;2023-11-18T06:43:58;4.40;99.90
21563;DHT22;10942;47.894;11.424;2023-11-18T06:46:29;4.40;99.90
21563;DHT22;10942;47.894;11.424;2023-11-18T06:48:57;4.40;99.90
21563;DHT22;10942;47.894;11.424;2023-11-18T06:51:26;4.40;99.90
21563;DHT22;10942;47.894;11.424;2023-11-18T06:53:56;4.50;99.90
21563;DHT22;10942;47.894;11.424;2023-11-18T06:56:26;4.50;99.90
21563;DHT22;10942;47.894;11.424;2023-11-18T06:58:53;4.50;99.90
21563;DHT22;10942;47.894;11.424;2023-11-18T07:01:19;4.50;99.90
21563;DHT22;10942;47.894;11.424;2023-11-18T07:03:46;4.60;99.90
21563;DHT22;10942;47.894;11.424;2023-11-18T07:06:17;4.60;99.90
21563;DHT22;10942;47.894;11.424;2023-11-18T07:08:48;4.60;99.90
21563;DHT22;10942;47.894;11.424;2023-11-18T07:11:15;4.60;99.90
21563;DHT22;10942;47.894;11.424;2023-11-18T07:13:41;4.60;99.90
21563;DHT22;10942;47.894;11.424;2023-11-18T07:16:07;4.60;99.90
21563;DHT22;10942;47.894;11.424;2023-11-18T07:18:38;4.60;99.90
21563;DHT22;10942;47.894;11.424;2023-11-18T07:21:04;4.70;99.90
21563;DHT22;10942;47.894;11.424;2023-11-18T07:23:31;4.70;99.90
21563;DHT22;10942;47.894;11.424;2023-11-18T07:25:57;4.70;99.90
21563;DHT22;10942;47.894;11.424;2023-11-18T07:28:23;4.70;99.90
21563;DHT22;10942;47.894;11.424;2023-11-18T07:30:49;4.80;99.90
21563;DHT22;10942;47.894;11.424;2023-11-18T07:33:16;4.90;99.90
21563;DHT22;10942;47.894;11.424;2023-11-18T07:35:42;4.90;99.90
21563;DHT22;10942;47.894;11.424;2023-11-18T07:38:08;4.90;99.90
21563;DHT22;10942;47.894;11.424;2023-11-18T07:40:36;5.00;99.90
21563;DHT22;10942;47.894;11.424;2023-11-18T07:43:08;5.10;99.90
21563;DHT22;10942;47.894;11.424;2023-11-18T07:45:37;5.10;99.90
21563;DHT22;10942;47.894;11.424;2023-11-18T07:48:07;5.10;99.90
21563;DHT22;10942;47.894;11.424;2023-11-18T07:50:36;5.20;99.90
21563;DHT22;10942;47.894;11.424;2023-11-18T07:53:02;5.30;99.90
21563;DHT22;10942;47.894;11.424;2023-11-18T07:55:29;5.30;99.90
21563;DHT22;10942;47.894;11.424;2023-11-18T07:57:55;5.30;99.90
21563;DHT22;10942;47.894;11.424;2023-11-18T08:00:21;5.50;99.90
21563;DHT22;10942;47.894;11.424;2023-11-18T08:02:49;5.50;99.90
21563;DHT22;10942;47.894;11.424;2023-11-18T08:05:15;5.70;99.90
21563;DHT22;10942;47.894;11.424;2023-11-18T08:07:44;5.70;99.90
21563;DHT22;10942;47.894;11.424;2023-11-18T08:10:10;5.80;99.90
21563;DHT22;10942;47.894;11.424;2023-11-18T08:12:39;5.80;99.90
21563;DHT22;10942;47.894;11.424;2023-11-18T08:15:06;6.00;99.90
21563;DHT22;10942;47.894;11.424;2023-11-18T08:17:35;6.10;99.90
21563;DHT22;10942;47.894;11.424;2023-11-18T08:20:01;6.20;99.90
21563;DHT22;10942;47.894;11.424;2023-11-18T08:22:32;6.30;99.90
21563;DHT22;10942;47.894;11.424;2023-11-18T08:24:58;6.50;99.90
21563;DHT22;10942;47.894;11.424;2023-11-18T08:27:24;6.60;99.90
21563;DHT22;10942;47.894;11.424;2023-11-18T08:29:50;6.80;99.90
21563;DHT22;10942;47.894;11.424;2023-11-18T08:32:16;6.80;99.90
21563;DHT22;10942;47.894;11.424;2023-11-18T08:34:41;6.90;99.90
21563;DHT22;10942;47.894;11.424;2023-11-18T08:37:07;7.10;99.90
21563;DHT22;10942;47.894;11.424;2023-11-18T08:39:33;7.30;99.90
21563;DHT22;10942;47.894;11.424;2023-11-18T08:42:04;7.60;99.90
21563;DHT22;10942;47.894;11.424;2023-11-18T08:44:33;7.60;99.90
21563;DHT22;10942;47.894;11.424;2023-11-18T08:49:25;7.80;99.90
21563;DHT22;10942;47.894;11.424;2023-11-18T08:54:24;8.50;99.90
21563;DHT22;10942;47.894;11.424;2023-11-18T08:57:04;8.40;99.90
21563;DHT22;10942;47.894;11.424;2023-11-18T08:59:45;8.60;99.90
21563;DHT22;10942;47.894;11.424;2023-11-18T09:02:10;8.50;99.90
21563;DHT22;10942;47.894;11.424;2023-11-18T09:04:41;8.50;99.90
21563;DHT22;10942;47.894;11.424;2023-11-18T09:09:35;9.00;99.90
21563;DHT22;10942;47.894;11.424;2023-11-18T09:12:01;9.00;99.90
21563;DHT22;10942;47.894;11.424;2023-11-18T09:14:28;8.70;99.90
21563;DHT22;10942;47.894;11.424;2023-11-18T09:16:54;8.90;99.90
21563;DHT22;10942;47.894;11.424;2023-11-18T09:19:25;9.20;99.90
21563;DHT22;10942;47.894;11.424;2023-11-18T09:21:51;9.10;99.90
21563;DHT22;10942;47.894;11.424;2023-11-18T09:24:20;9.40;99.90
21563;DHT22;10942;47.894;11.424;2023-11-18T09:26:46;9.70;99.90
21563;DHT22;10942;47.894;11.424;2023-11-18T09:31:49;10.30;99.90
21563;DHT22;10942;47.894;11.424;2023-11-18T09:34:18;10.40;99.90
21563;DHT22;10942;47.894;11.424;2023-11-18T09:36:53;10.30;99.90
21563;DHT22;10942;47.894;11.424;2023-11-18T09:39:19;10.20;99.90
21563;DHT22;10942;47.894;11.424;2023-11-18T09:42:05;10.50;99.90
21563;DHT22;10942;47.894;11.424;2023-11-18T09:44:35;10.40;99.90
21563;DHT22;10942;47.894;11.424;2023-11-18T09:47:05;10.40;99.90
21563;DHT22;10942;47.894;11.424;2023-11-18T09:49:40;10.50;99.90
21563;DHT22;10942;47.894;11.424;2023-11-18T09:52:06;10.60;99.90
21563;DHT22;10942;47.894;11.424;2023-11-18T10:09:48;10.50;99.90
21563;DHT22;10942;47.894;11.424;2023-11-18T10:12:14;10.00;99.90
21563;DHT22;10942;47.894;11.424;2023-11-18T10:14:42;9.80;99.90
21563;DHT22;10942;47.894;11.424;2023-11-18T10:17:11;10.10;99.90
21563;DHT22;10942;47.894;11.424;2023-11-18T10:19:57;10.20;99.90
21563;DHT22;10942;47.894;11.424;2023-11-18T10:22:29;10.00;99.90
21563;DHT22;10942;47.894;11.424;2023-11-18T10:24:55;10.10;99.90
21563;DHT22;10942;47.894;11.424;2023-11-18T10:27:24;10.10;99.90
21563;DHT22;10942;47.894;11.424;2023-11-18T10:29:56;10.40;99.90
21563;DHT22;10942;47.894;11.424;2023-11-18T10:32:22;10.50;99.90
21563;DHT22;10942;47.894;11.424;2023-11-18T10:34:55;10.60;99.90
21563;DHT22;10942;47.894;11.424;2023-11-18T10:37:21;10.70;99.90
21563;DHT22;10942;47.894;11.424;2023-11-18T10:39:48;10.60;99.90
